sensor_id;sensor_type;location;lat;lon;timestamp;P1;durP1;ratioP1;P2;durP2;ratioP2
52043;SDS011;38053;53.100;6.078;2023-02-28T00:00:36;15.35;;;3.80;;
52043;SDS011;38053;53.100;6.078;2023-02-28T00:03:03;14.55;;;3.72;;
52043;SDS011;38053;53.100;6.078;2023-02-28T00:05:29;15.45;;;3.78;;
52043;SDS011;38053;53.100;6.078;2023-02-28T00:07:55;21.52;;;5.35;;
52043;SDS011;38053;53.100;6.078;2023-02-28T00:10:22;15.10;;;4.05;;
52043;SDS011;38053;53.100;6.078;2023-02-28T00:12:59;19.25;;;3.88;;
52043;SDS011;38053;53.100;6.078;2023-02-28T00:15:29;14.00;;;3.80;;
52043;SDS011;38053;53.100;6.078;2023-02-28T00:17:56;14.43;;;3.28;;
52043;SDS011;38053;53.100;6.078;2023-02-28T00:20:22;11.02;;;3.83;;
52043;SDS011;38053;53.100;6.078;2023-02-28T00:22:50;23.55;;;4.35;;
52043;SDS011;38053;53.100;6.078;2023-02-28T00:25:18;11.20;;;4.03;;
52043;SDS011;38053;53.100;6.078;2023-02-28T00:27:49;16.00;;;4.18;;
52043;SDS011;38053;53.100;6.078;2023-02-28T00:30:22;11.27;;;3.63;;
52043;SDS011;38053;53.100;6.078;2023-02-28T00:32:49;10.60;;;3.25;;
52043;SDS011;38053;53.100;6.078;2023-02-28T00:35:23;10.75;;;2.90;;
52043;SDS011;38053;53.100;6.078;2023-02-28T00:37:49;17.63;;;3.58;;
52043;SDS011;38053;53.100;6.078;2023-02-28T00:40:14;18.75;;;4.80;;
52043;SDS011;38053;53.100;6.078;2023-02-28T00:42:40;12.07;;;2.92;;
52043;SDS011;38053;53.100;6.078;2023-02-28T00:45:06;11.70;;;3.65;;
52043;SDS011;38053;53.100;6.078;2023-02-28T00:47:33;9.60;;;3.15;;
52043;SDS011;38053;53.100;6.078;2023-02-28T00:49:59;8.90;;;3.08;;
52043;SDS011;38053;53.100;6.078;2023-02-28T00:52:24;17.27;;;4.72;;
52043;SDS011;38053;53.100;6.078;2023-02-28T00:54:50;7.88;;;3.22;;
52043;SDS011;38053;53.100;6.078;2023-02-28T00:57:16;11.63;;;4.13;;
52043;SDS011;38053;53.100;6.078;2023-02-28T00:59:41;15.30;;;3.88;;
52043;SDS011;38053;53.100;6.078;2023-02-28T01:02:07;18.83;;;4.88;;
52043;SDS011;38053;53.100;6.078;2023-02-28T01:04:37;14.68;;;5.13;;
52043;SDS011;38053;53.100;6.078;2023-02-28T01:07:03;10.27;;;3.35;;
52043;SDS011;38053;53.100;6.078;2023-02-28T01:09:28;10.52;;;3.80;;
52043;SDS011;38053;53.100;6.078;2023-02-28T01:11:54;12.52;;;4.47;;
52043;SDS011;38053;53.100;6.078;2023-02-28T01:14:20;10.82;;;3.95;;
52043;SDS011;38053;53.100;6.078;2023-02-28T01:16:45;12.73;;;4.15;;
52043;SDS011;38053;53.100;6.078;2023-02-28T01:19:11;17.80;;;3.78;;
52043;SDS011;38053;53.100;6.078;2023-02-28T01:21:38;14.57;;;4.15;;
52043;SDS011;38053;53.100;6.078;2023-02-28T01:24:04;10.23;;;3.70;;
52043;SDS011;38053;53.100;6.078;2023-02-28T01:26:33;11.57;;;4.25;;
52043;SDS011;38053;53.100;6.078;2023-02-28T01:29:00;12.90;;;3.83;;
52043;SDS011;38053;53.100;6.078;2023-02-28T01:31:28;13.05;;;3.55;;
52043;SDS011;38053;53.100;6.078;2023-02-28T01:33:54;8.85;;;3.30;;
52043;SDS011;38053;53.100;6.078;2023-02-28T01:36:21;17.77;;;4.97;;
52043;SDS011;38053;53.100;6.078;2023-02-28T01:38:48;16.38;;;4.65;;
52043;SDS011;38053;53.100;6.078;2023-02-28T01:41:16;10.15;;;3.85;;
52043;SDS011;38053;53.100;6.078;2023-02-28T01:46:12;19.23;;;4.03;;
52043;SDS011;38053;53.100;6.078;2023-02-28T01:48:45;17.13;;;3.85;;
52043;SDS011;38053;53.100;6.078;2023-02-28T01:51:13;11.27;;;4.28;;
52043;SDS011;38053;53.100;6.078;2023-02-28T01:53:45;13.23;;;4.38;;
52043;SDS011;38053;53.100;6.078;2023-02-28T01:56:15;12.32;;;4.82;;
52043;SDS011;38053;53.100;6.078;2023-02-28T01:58:46;13.75;;;3.97;;
52043;SDS011;38053;53.100;6.078;2023-02-28T02:01:14;12.73;;;3.83;;
52043;SDS011;38053;53.100;6.078;2023-02-28T02:03:47;16.95;;;4.32;;
52043;SDS011;38053;53.100;6.078;2023-02-28T02:06:44;10.65;;;3.42;;
52043;SDS011;38053;53.100;6.078;2023-02-28T02:09:11;18.48;;;5.05;;
52043;SDS011;38053;53.100;6.078;2023-02-28T02:11:37;18.17;;;3.95;;
52043;SDS011;38053;53.100;6.078;2023-02-28T02:16:59;14.95;;;3.38;;
52043;SDS011;38053;53.100;6.078;2023-02-28T02:39:02;10.40;;;4.10;;
52043;SDS011;38053;53.100;6.078;2023-02-28T02:41:39;19.45;;;4.90;;
52043;SDS011;38053;53.100;6.078;2023-02-28T02:47:11;13.55;;;3.92;;
52043;SDS011;38053;53.100;6.078;2023-02-28T02:49:40;15.40;;;4.88;;
52043;SDS011;38053;53.100;6.078;2023-02-28T02:52:09;12.85;;;5.20;;
52043;SDS011;38053;53.100;6.078;2023-02-28T02:54:41;20.10;;;4.35;;
52043;SDS011;38053;53.100;6.078;2023-02-28T02:57:13;14.07;;;4.60;;
52043;SDS011;38053;53.100;6.078;2023-02-28T03:00:02;14.60;;;5.03;;
52043;SDS011;38053;53.100;6.078;2023-02-28T03:02:33;31.25;;;5.95;;
52043;SDS011;38053;53.100;6.078;2023-02-28T03:05:04;15.65;;;4.75;;
52043;SDS011;38053;53.100;6.078;2023-02-28T03:07:37;12.40;;;4.38;;
52043;SDS011;38053;53.100;6.078;2023-02-28T03:10:03;14.65;;;5.18;;
52043;SDS011;38053;53.100;6.078;2023-02-28T03:12:50;12.27;;;4.97;;
52043;SDS011;38053;53.100;6.078;2023-02-28T03:15:26;20.95;;;5.95;;
52043;SDS011;38053;53.100;6.078;2023-02-28T03:18:08;14.30;;;5.07;;
52043;SDS011;38053;53.100;6.078;2023-02-28T03:23:38;12.98;;;5.07;;
52043;SDS011;38053;53.100;6.078;2023-02-28T03:26:19;13.32;;;4.50;;
52043;SDS011;38053;53.100;6.078;2023-02-28T03:31:33;14.90;;;4.72;;
52043;SDS011;38053;53.100;6.078;2023-02-28T03:34:06;14.80;;;4.30;;
52043;SDS011;38053;53.100;6.078;2023-02-28T03:36:48;20.17;;;6.32;;
52043;SDS011;38053;53.100;6.078;2023-02-28T03:39:20;13.52;;;4.80;;
52043;SDS011;38053;53.100;6.078;2023-02-28T03:42:01;17.42;;;4.68;;
52043;SDS011;38053;53.100;6.078;2023-02-28T03:44:32;16.15;;;5.18;;
52043;SDS011;38053;53.100;6.078;2023-02-28T03:47:12;18.30;;;5.82;;
52043;SDS011;38053;53.100;6.078;2023-02-28T03:52:16;15.52;;;5.57;;
52043;SDS011;38053;53.100;6.078;2023-02-28T03:54:46;13.50;;;4.63;;
52043;SDS011;38053;53.100;6.078;2023-02-28T04:00:06;13.75;;;4.95;;
52043;SDS011;38053;53.100;6.078;2023-02-28T04:02:41;17.95;;;5.57;;
52043;SDS011;38053;53.100;6.078;2023-02-28T04:05:07;18.83;;;5.35;;
52043;SDS011;38053;53.100;6.078;2023-02-28T04:07:33;15.20;;;4.78;;
52043;SDS011;38053;53.100;6.078;2023-02-28T04:09:59;15.40;;;6.22;;
52043;SDS011;38053;53.100;6.078;2023-02-28T04:12:25;14.52;;;5.40;;
52043;SDS011;38053;53.100;6.078;2023-02-28T04:14:51;15.88;;;5.18;;
52043;SDS011;38053;53.100;6.078;2023-02-28T04:17:17;14.27;;;5.53;;
52043;SDS011;38053;53.100;6.078;2023-02-28T04:19:43;13.23;;;5.30;;
52043;SDS011;38053;53.100;6.078;2023-02-28T04:22:09;11.85;;;3.83;;
52043;SDS011;38053;53.100;6.078;2023-02-28T04:24:35;9.48;;;4.20;;
52043;SDS011;38053;53.100;6.078;2023-02-28T04:27:01;10.05;;;4.68;;
52043;SDS011;38053;53.100;6.078;2023-02-28T04:29:31;12.15;;;4.93;;
52043;SDS011;38053;53.100;6.078;2023-02-28T04:31:57;8.60;;;5.03;;
52043;SDS011;38053;53.100;6.078;2023-02-28T04:34:25;14.13;;;5.28;;
52043;SDS011;38053;53.100;6.078;2023-02-28T04:36:52;15.00;;;5.65;;
52043;SDS011;38053;53.100;6.078;2023-02-28T04:39:20;14.07;;;5.18;;
52043;SDS011;38053;53.100;6.078;2023-02-28T04:41:49;16.23;;;5.87;;
52043;SDS011;38053;53.100;6.078;2023-02-28T04:44:15;12.43;;;5.90;;
52043;SDS011;38053;53.100;6.078;2023-02-28T04:46:41;12.77;;;6.47;;
52043;SDS011;38053;53.100;6.078;2023-02-28T04:49:11;13.55;;;7.00;;
52043;SDS011;38053;53.100;6.078;2023-02-28T04:51:37;11.48;;;6.90;;
52043;SDS011;38053;53.100;6.078;2023-02-28T04:54:03;15.88;;;8.32;;
52043;SDS011;38053;53.100;6.078;2023-02-28T04:56:29;11.10;;;7.00;;
52043;SDS011;38053;53.100;6.078;2023-02-28T04:58:55;18.70;;;8.18;;
52043;SDS011;38053;53.100;6.078;2023-02-28T05:01:28;15.27;;;8.00;;
52043;SDS011;38053;53.100;6.078;2023-02-28T05:03:56;11.57;;;6.82;;
52043;SDS011;38053;53.100;6.078;2023-02-28T05:06:24;11.27;;;7.60;;
52043;SDS011;38053;53.100;6.078;2023-02-28T05:08:52;16.30;;;7.57;;
52043;SDS011;38053;53.100;6.078;2023-02-28T05:11:22;11.02;;;6.10;;
52043;SDS011;38053;53.100;6.078;2023-02-28T05:14:05;13.95;;;5.95;;
52043;SDS011;38053;53.100;6.078;2023-02-28T05:16:38;14.25;;;6.80;;
52043;SDS011;38053;53.100;6.078;2023-02-28T05:19:04;8.82;;;5.28;;
52043;SDS011;38053;53.100;6.078;2023-02-28T05:21:31;8.73;;;6.07;;
52043;SDS011;38053;53.100;6.078;2023-02-28T05:24:03;10.32;;;5.00;;
52043;SDS011;38053;53.100;6.078;2023-02-28T05:26:31;7.88;;;5.43;;
52043;SDS011;38053;53.100;6.078;2023-02-28T05:28:59;9.93;;;5.45;;
52043;SDS011;38053;53.100;6.078;2023-02-28T05:31:25;10.77;;;6.18;;
52043;SDS011;38053;53.100;6.078;2023-02-28T05:33:50;11.25;;;6.47;;
52043;SDS011;38053;53.100;6.078;2023-02-28T05:36:22;11.85;;;6.68;;
52043;SDS011;38053;53.100;6.078;2023-02-28T05:38:49;15.65;;;7.47;;
52043;SDS011;38053;53.100;6.078;2023-02-28T05:41:16;10.43;;;6.07;;
52043;SDS011;38053;53.100;6.078;2023-02-28T05:43:44;10.77;;;6.88;;
52043;SDS011;38053;53.100;6.078;2023-02-28T05:46:10;12.15;;;6.80;;
52043;SDS011;38053;53.100;6.078;2023-02-28T05:48:37;11.98;;;6.78;;
52043;SDS011;38053;53.100;6.078;2023-02-28T05:51:05;14.63;;;8.18;;
52043;SDS011;38053;53.100;6.078;2023-02-28T05:53:32;12.05;;;9.00;;
52043;SDS011;38053;53.100;6.078;2023-02-28T05:55:59;16.88;;;6.95;;
52043;SDS011;38053;53.100;6.078;2023-02-28T05:58:25;10.00;;;6.53;;
52043;SDS011;38053;53.100;6.078;2023-02-28T06:00:55;12.13;;;5.78;;
52043;SDS011;38053;53.100;6.078;2023-02-28T06:03:23;10.75;;;6.55;;
52043;SDS011;38053;53.100;6.078;2023-02-28T06:05:53;11.43;;;6.60;;
52043;SDS011;38053;53.100;6.078;2023-02-28T06:08:22;13.35;;;6.90;;
52043;SDS011;38053;53.100;6.078;2023-02-28T06:10:47;10.43;;;5.90;;
52043;SDS011;38053;53.100;6.078;2023-02-28T06:13:14;10.70;;;5.72;;
52043;SDS011;38053;53.100;6.078;2023-02-28T06:15:40;10.18;;;6.82;;
52043;SDS011;38053;53.100;6.078;2023-02-28T06:18:06;8.80;;;5.93;;
52043;SDS011;38053;53.100;6.078;2023-02-28T06:20:31;11.25;;;6.88;;
52043;SDS011;38053;53.100;6.078;2023-02-28T06:22:58;11.05;;;6.97;;
52043;SDS011;38053;53.100;6.078;2023-02-28T06:25:25;17.08;;;8.35;;
52043;SDS011;38053;53.100;6.078;2023-02-28T06:27:52;15.27;;;9.15;;
52043;SDS011;38053;53.100;6.078;2023-02-28T06:30:19;19.67;;;9.32;;
52043;SDS011;38053;53.100;6.078;2023-02-28T06:32:48;15.90;;;10.43;;
52043;SDS011;38053;53.100;6.078;2023-02-28T06:35:14;19.35;;;10.80;;
52043;SDS011;38053;53.100;6.078;2023-02-28T06:37:40;17.27;;;10.95;;
52043;SDS011;38053;53.100;6.078;2023-02-28T06:40:07;18.13;;;11.25;;
52043;SDS011;38053;53.100;6.078;2023-02-28T06:42:34;17.45;;;10.93;;
52043;SDS011;38053;53.100;6.078;2023-02-28T06:45:00;22.10;;;13.40;;
52043;SDS011;38053;53.100;6.078;2023-02-28T06:47:28;23.33;;;12.82;;
52043;SDS011;38053;53.100;6.078;2023-02-28T06:49:55;17.63;;;10.60;;
52043;SDS011;38053;53.100;6.078;2023-02-28T06:52:21;17.92;;;10.70;;
52043;SDS011;38053;53.100;6.078;2023-02-28T06:54:47;19.20;;;10.60;;
52043;SDS011;38053;53.100;6.078;2023-02-28T06:57:24;15.73;;;10.23;;
52043;SDS011;38053;53.100;6.078;2023-02-28T06:59:57;21.35;;;11.38;;
52043;SDS011;38053;53.100;6.078;2023-02-28T07:02:24;17.08;;;11.00;;
52043;SDS011;38053;53.100;6.078;2023-02-28T07:04:53;21.45;;;13.15;;
52043;SDS011;38053;53.100;6.078;2023-02-28T07:07:18;16.98;;;12.77;;
52043;SDS011;38053;53.100;6.078;2023-02-28T07:09:44;22.85;;;12.60;;
52043;SDS011;38053;53.100;6.078;2023-02-28T07:12:10;21.15;;;13.70;;
52043;SDS011;38053;53.100;6.078;2023-02-28T07:14:36;24.65;;;14.70;;
52043;SDS011;38053;53.100;6.078;2023-02-28T07:17:02;24.50;;;13.43;;
52043;SDS011;38053;53.100;6.078;2023-02-28T07:19:28;23.98;;;14.63;;
52043;SDS011;38053;53.100;6.078;2023-02-28T07:21:54;22.45;;;13.95;;
52043;SDS011;38053;53.100;6.078;2023-02-28T07:24:21;23.30;;;15.65;;
52043;SDS011;38053;53.100;6.078;2023-02-28T07:26:48;26.58;;;16.08;;
52043;SDS011;38053;53.100;6.078;2023-02-28T07:29:14;25.15;;;15.55;;
52043;SDS011;38053;53.100;6.078;2023-02-28T07:31:40;25.02;;;16.30;;
52043;SDS011;38053;53.100;6.078;2023-02-28T07:34:05;28.45;;;15.10;;
52043;SDS011;38053;53.100;6.078;2023-02-28T07:36:32;28.98;;;16.25;;
52043;SDS011;38053;53.100;6.078;2023-02-28T07:38:58;21.52;;;15.18;;
52043;SDS011;38053;53.100;6.078;2023-02-28T07:41:24;30.13;;;16.48;;
52043;SDS011;38053;53.100;6.078;2023-02-28T07:43:55;27.40;;;16.40;;
52043;SDS011;38053;53.100;6.078;2023-02-28T07:46:34;23.58;;;15.10;;
52043;SDS011;38053;53.100;6.078;2023-02-28T07:49:03;25.65;;;15.90;;
52043;SDS011;38053;53.100;6.078;2023-02-28T07:51:29;26.88;;;15.68;;
52043;SDS011;38053;53.100;6.078;2023-02-28T07:53:57;26.60;;;15.80;;
52043;SDS011;38053;53.100;6.078;2023-02-28T07:56:23;23.10;;;15.13;;
52043;SDS011;38053;53.100;6.078;2023-02-28T07:58:48;26.23;;;16.10;;
52043;SDS011;38053;53.100;6.078;2023-02-28T08:01:19;30.98;;;16.30;;
52043;SDS011;38053;53.100;6.078;2023-02-28T08:03:45;27.13;;;15.27;;
52043;SDS011;38053;53.100;6.078;2023-02-28T08:06:16;26.83;;;16.60;;
52043;SDS011;38053;53.100;6.078;2023-02-28T08:08:44;26.38;;;16.05;;
52043;SDS011;38053;53.100;6.078;2023-02-28T08:11:10;27.33;;;16.95;;
52043;SDS011;38053;53.100;6.078;2023-02-28T08:13:35;26.88;;;15.93;;
52043;SDS011;38053;53.100;6.078;2023-02-28T08:16:01;26.92;;;16.05;;
52043;SDS011;38053;53.100;6.078;2023-02-28T08:18:27;28.80;;;16.58;;
52043;SDS011;38053;53.100;6.078;2023-02-28T08:20:53;28.30;;;17.05;;
52043;SDS011;38053;53.100;6.078;2023-02-28T08:23:21;25.88;;;16.00;;
52043;SDS011;38053;53.100;6.078;2023-02-28T08:25:56;26.63;;;17.40;;
52043;SDS011;38053;53.100;6.078;2023-02-28T08:28:22;30.27;;;16.48;;
52043;SDS011;38053;53.100;6.078;2023-02-28T08:30:48;24.20;;;15.93;;
52043;SDS011;38053;53.100;6.078;2023-02-28T08:33:14;23.95;;;15.45;;
52043;SDS011;38053;53.100;6.078;2023-02-28T08:35:40;22.27;;;15.43;;
52043;SDS011;38053;53.100;6.078;2023-02-28T08:38:05;24.83;;;16.15;;
52043;SDS011;38053;53.100;6.078;2023-02-28T08:40:31;25.05;;;15.68;;
52043;SDS011;38053;53.100;6.078;2023-02-28T08:42:57;26.77;;;16.45;;
52043;SDS011;38053;53.100;6.078;2023-02-28T08:45:23;23.40;;;15.70;;
52043;SDS011;38053;53.100;6.078;2023-02-28T08:47:49;26.15;;;15.52;;
52043;SDS011;38053;53.100;6.078;2023-02-28T08:50:17;29.33;;;16.60;;
52043;SDS011;38053;53.100;6.078;2023-02-28T08:52:43;26.08;;;16.23;;
52043;SDS011;38053;53.100;6.078;2023-02-28T08:55:09;23.73;;;15.45;;
52043;SDS011;38053;53.100;6.078;2023-02-28T08:57:35;27.70;;;15.63;;
52043;SDS011;38053;53.100;6.078;2023-02-28T09:00:01;21.98;;;14.93;;
52043;SDS011;38053;53.100;6.078;2023-02-28T09:02:29;22.08;;;14.38;;
52043;SDS011;38053;53.100;6.078;2023-02-28T09:04:57;26.58;;;14.02;;
52043;SDS011;38053;53.100;6.078;2023-02-28T09:07:23;21.48;;;14.35;;
52043;SDS011;38053;53.100;6.078;2023-02-28T09:09:49;21.15;;;14.35;;
52043;SDS011;38053;53.100;6.078;2023-02-28T09:12:23;25.48;;;13.73;;
52043;SDS011;38053;53.100;6.078;2023-02-28T09:14:50;20.60;;;13.60;;
52043;SDS011;38053;53.100;6.078;2023-02-28T09:17:19;17.50;;;13.02;;
52043;SDS011;38053;53.100;6.078;2023-02-28T09:19:47;18.83;;;13.38;;
52043;SDS011;38053;53.100;6.078;2023-02-28T09:22:14;19.60;;;11.65;;
52043;SDS011;38053;53.100;6.078;2023-02-28T09:24:40;20.02;;;12.35;;
52043;SDS011;38053;53.100;6.078;2023-02-28T09:27:07;17.55;;;11.93;;
52043;SDS011;38053;53.100;6.078;2023-02-28T09:29:35;18.27;;;12.15;;
52043;SDS011;38053;53.100;6.078;2023-02-28T09:32:00;18.95;;;11.40;;
52043;SDS011;38053;53.100;6.078;2023-02-28T09:34:30;22.50;;;12.43;;
52043;SDS011;38053;53.100;6.078;2023-02-28T09:36:55;17.23;;;11.48;;
52043;SDS011;38053;53.100;6.078;2023-02-28T09:39:22;18.63;;;12.95;;
52043;SDS011;38053;53.100;6.078;2023-02-28T09:41:52;17.42;;;12.57;;
52043;SDS011;38053;53.100;6.078;2023-02-28T09:46:57;16.40;;;11.90;;
52043;SDS011;38053;53.100;6.078;2023-02-28T09:49:45;14.57;;;10.35;;
52043;SDS011;38053;53.100;6.078;2023-02-28T09:52:24;16.65;;;11.20;;
52043;SDS011;38053;53.100;6.078;2023-02-28T09:57:50;15.43;;;10.75;;
52043;SDS011;38053;53.100;6.078;2023-02-28T10:00:18;17.98;;;11.57;;
52043;SDS011;38053;53.100;6.078;2023-02-28T10:05:26;18.50;;;11.70;;
52043;SDS011;38053;53.100;6.078;2023-02-28T10:10:55;16.95;;;10.68;;
52043;SDS011;38053;53.100;6.078;2023-02-28T10:13:31;16.83;;;11.02;;
52043;SDS011;38053;53.100;6.078;2023-02-28T10:16:09;19.33;;;10.43;;
52043;SDS011;38053;53.100;6.078;2023-02-28T10:18:48;19.33;;;9.25;;
52043;SDS011;38053;53.100;6.078;2023-02-28T10:21:21;14.02;;;9.57;;
52043;SDS011;38053;53.100;6.078;2023-02-28T10:23:59;12.43;;;8.35;;
52043;SDS011;38053;53.100;6.078;2023-02-28T10:26:36;12.00;;;6.47;;
52043;SDS011;38053;53.100;6.078;2023-02-28T10:29:02;13.40;;;8.38;;
52043;SDS011;38053;53.100;6.078;2023-02-28T10:31:28;11.20;;;6.97;;
52043;SDS011;38053;53.100;6.078;2023-02-28T10:33:54;12.93;;;8.20;;
52043;SDS011;38053;53.100;6.078;2023-02-28T10:36:20;11.23;;;7.15;;
52043;SDS011;38053;53.100;6.078;2023-02-28T10:38:47;13.13;;;7.38;;
52043;SDS011;38053;53.100;6.078;2023-02-28T10:41:14;10.85;;;6.63;;
52043;SDS011;38053;53.100;6.078;2023-02-28T10:43:42;12.68;;;7.40;;
52043;SDS011;38053;53.100;6.078;2023-02-28T10:51:05;10.82;;;6.53;;
52043;SDS011;38053;53.100;6.078;2023-02-28T10:53:35;13.10;;;7.05;;
52043;SDS011;38053;53.100;6.078;2023-02-28T10:58:57;10.82;;;6.13;;
52043;SDS011;38053;53.100;6.078;2023-02-28T11:04:17;9.25;;;5.97;;
52043;SDS011;38053;53.100;6.078;2023-02-28T11:07:01;10.80;;;6.67;;
52043;SDS011;38053;53.100;6.078;2023-02-28T11:09:44;13.70;;;7.10;;
52043;SDS011;38053;53.100;6.078;2023-02-28T11:14:52;9.98;;;6.13;;
52043;SDS011;38053;53.100;6.078;2023-02-28T11:18:00;9.45;;;5.03;;
52043;SDS011;38053;53.100;6.078;2023-02-28T11:20:38;7.78;;;4.28;;
52043;SDS011;38053;53.100;6.078;2023-02-28T11:23:04;7.47;;;4.20;;
52043;SDS011;38053;53.100;6.078;2023-02-28T11:25:37;11.48;;;4.45;;
52043;SDS011;38053;53.100;6.078;2023-02-28T11:28:05;6.38;;;3.38;;
52043;SDS011;38053;53.100;6.078;2023-02-28T11:30:49;5.65;;;2.78;;
52043;SDS011;38053;53.100;6.078;2023-02-28T11:33:32;6.47;;;2.60;;
52043;SDS011;38053;53.100;6.078;2023-02-28T11:36:11;11.65;;;2.97;;
52043;SDS011;38053;53.100;6.078;2023-02-28T11:38:43;8.32;;;3.40;;
52043;SDS011;38053;53.100;6.078;2023-02-28T11:41:18;5.80;;;3.05;;
52043;SDS011;38053;53.100;6.078;2023-02-28T11:46:41;7.50;;;3.22;;
52043;SDS011;38053;53.100;6.078;2023-02-28T11:49:22;9.70;;;3.35;;
52043;SDS011;38053;53.100;6.078;2023-02-28T11:52:10;8.98;;;3.95;;
52043;SDS011;38053;53.100;6.078;2023-02-28T11:57:49;7.68;;;3.58;;
52043;SDS011;38053;53.100;6.078;2023-02-28T12:00:52;6.70;;;4.07;;
52043;SDS011;38053;53.100;6.078;2023-02-28T12:06:25;6.70;;;3.65;;
52043;SDS011;38053;53.100;6.078;2023-02-28T12:28:20;5.82;;;3.22;;
52043;SDS011;38053;53.100;6.078;2023-02-28T12:30:58;6.97;;;3.88;;
52043;SDS011;38053;53.100;6.078;2023-02-28T12:33:33;7.25;;;3.65;;
52043;SDS011;38053;53.100;6.078;2023-02-28T12:36:03;8.55;;;3.47;;
52043;SDS011;38053;53.100;6.078;2023-02-28T12:38:43;7.55;;;3.47;;
52043;SDS011;38053;53.100;6.078;2023-02-28T12:41:20;6.13;;;3.60;;
52043;SDS011;38053;53.100;6.078;2023-02-28T12:44:09;6.82;;;2.88;;
52043;SDS011;38053;53.100;6.078;2023-02-28T12:46:48;5.28;;;2.88;;
52043;SDS011;38053;53.100;6.078;2023-02-28T12:49:31;6.78;;;3.65;;
52043;SDS011;38053;53.100;6.078;2023-02-28T12:52:07;6.40;;;3.22;;
52043;SDS011;38053;53.100;6.078;2023-02-28T12:54:51;6.60;;;4.70;;
52043;SDS011;38053;53.100;6.078;2023-02-28T12:57:36;8.48;;;3.47;;
52043;SDS011;38053;53.100;6.078;2023-02-28T13:00:18;5.15;;;3.05;;
52043;SDS011;38053;53.100;6.078;2023-02-28T13:05:55;7.50;;;4.30;;
52043;SDS011;38053;53.100;6.078;2023-02-28T13:14:24;5.68;;;3.08;;
52043;SDS011;38053;53.100;6.078;2023-02-28T13:19:39;7.53;;;3.58;;
52043;SDS011;38053;53.100;6.078;2023-02-28T13:27:47;6.82;;;3.22;;
52043;SDS011;38053;53.100;6.078;2023-02-28T13:33:29;9.27;;;3.55;;
52043;SDS011;38053;53.100;6.078;2023-02-28T13:36:39;5.72;;;2.92;;
52043;SDS011;38053;53.100;6.078;2023-02-28T13:38:51;7.82;;;3.20;;
52043;SDS011;38053;53.100;6.078;2023-02-28T13:44:15;6.60;;;3.33;;
52043;SDS011;38053;53.100;6.078;2023-02-28T13:51:46;7.32;;;3.33;;
52043;SDS011;38053;53.100;6.078;2023-02-28T13:56:51;7.50;;;3.50;;
52043;SDS011;38053;53.100;6.078;2023-02-28T14:07:26;7.40;;;3.65;;
52043;SDS011;38053;53.100;6.078;2023-02-28T14:10:06;6.15;;;3.72;;
52043;SDS011;38053;53.100;6.078;2023-02-28T14:18:01;8.13;;;3.10;;
52043;SDS011;38053;53.100;6.078;2023-02-28T14:20:33;6.82;;;3.35;;
52043;SDS011;38053;53.100;6.078;2023-02-28T14:26:10;6.22;;;3.33;;
52043;SDS011;38053;53.100;6.078;2023-02-28T14:29:07;7.85;;;3.13;;
52043;SDS011;38053;53.100;6.078;2023-02-28T14:31:59;5.15;;;3.20;;
52043;SDS011;38053;53.100;6.078;2023-02-28T14:37:41;6.05;;;3.55;;
52043;SDS011;38053;53.100;6.078;2023-02-28T14:40:12;4.97;;;3.00;;
52043;SDS011;38053;53.100;6.078;2023-02-28T14:45:29;7.15;;;3.47;;
52043;SDS011;38053;53.100;6.078;2023-02-28T14:47:58;8.38;;;4.32;;
52043;SDS011;38053;53.100;6.078;2023-02-28T14:50:38;8.40;;;3.97;;
52043;SDS011;38053;53.100;6.078;2023-02-28T14:53:17;9.95;;;3.75;;
52043;SDS011;38053;53.100;6.078;2023-02-28T14:55:46;9.02;;;3.63;;
52043;SDS011;38053;53.100;6.078;2023-02-28T14:58:20;10.25;;;3.88;;
52043;SDS011;38053;53.100;6.078;2023-02-28T15:00:52;6.65;;;3.72;;
52043;SDS011;38053;53.100;6.078;2023-02-28T15:03:37;9.60;;;4.07;;
52043;SDS011;38053;53.100;6.078;2023-02-28T15:06:14;7.03;;;3.70;;
52043;SDS011;38053;53.100;6.078;2023-02-28T15:08:42;7.78;;;3.85;;
52043;SDS011;38053;53.100;6.078;2023-02-28T15:11:18;6.30;;;3.65;;
52043;SDS011;38053;53.100;6.078;2023-02-28T15:13:56;6.15;;;3.28;;
52043;SDS011;38053;53.100;6.078;2023-02-28T15:16:24;8.98;;;3.72;;
52043;SDS011;38053;53.100;6.078;2023-02-28T15:19:03;8.95;;;3.58;;
52043;SDS011;38053;53.100;6.078;2023-02-28T15:21:39;8.93;;;4.28;;
52043;SDS011;38053;53.100;6.078;2023-02-28T15:24:16;7.03;;;3.67;;
52043;SDS011;38053;53.100;6.078;2023-02-28T15:27:00;8.35;;;4.45;;
52043;SDS011;38053;53.100;6.078;2023-02-28T15:29:32;7.43;;;3.55;;
52043;SDS011;38053;53.100;6.078;2023-02-28T15:34:50;9.60;;;3.10;;
52043;SDS011;38053;53.100;6.078;2023-02-28T15:37:30;6.75;;;4.10;;
52043;SDS011;38053;53.100;6.078;2023-02-28T15:40:11;8.77;;;3.78;;
52043;SDS011;38053;53.100;6.078;2023-02-28T15:42:41;8.32;;;4.15;;
52043;SDS011;38053;53.100;6.078;2023-02-28T15:45:28;6.35;;;4.00;;
52043;SDS011;38053;53.100;6.078;2023-02-28T15:48:22;7.45;;;3.70;;
52043;SDS011;38053;53.100;6.078;2023-02-28T15:50:54;6.03;;;3.80;;
52043;SDS011;38053;53.100;6.078;2023-02-28T15:53:33;7.15;;;3.78;;
52043;SDS011;38053;53.100;6.078;2023-02-28T15:56:22;8.18;;;3.92;;
52043;SDS011;38053;53.100;6.078;2023-02-28T15:58:52;6.85;;;4.60;;
52043;SDS011;38053;53.100;6.078;2023-02-28T16:01:24;7.95;;;3.60;;
52043;SDS011;38053;53.100;6.078;2023-02-28T16:03:54;7.05;;;3.65;;
52043;SDS011;38053;53.100;6.078;2023-02-28T16:09:05;9.68;;;3.72;;
52043;SDS011;38053;53.100;6.078;2023-02-28T16:11:38;9.07;;;4.72;;
52043;SDS011;38053;53.100;6.078;2023-02-28T16:14:35;10.32;;;4.78;;
52043;SDS011;38053;53.100;6.078;2023-02-28T16:17:04;10.23;;;4.53;;
52043;SDS011;38053;53.100;6.078;2023-02-28T16:19:38;8.23;;;4.55;;
52043;SDS011;38053;53.100;6.078;2023-02-28T16:22:03;11.32;;;5.47;;
52043;SDS011;38053;53.100;6.078;2023-02-28T16:24:29;7.68;;;4.18;;
52043;SDS011;38053;53.100;6.078;2023-02-28T16:26:55;8.65;;;4.93;;
52043;SDS011;38053;53.100;6.078;2023-02-28T16:29:31;11.35;;;6.05;;
52043;SDS011;38053;53.100;6.078;2023-02-28T16:32:00;11.15;;;5.25;;
52043;SDS011;38053;53.100;6.078;2023-02-28T16:34:28;9.73;;;5.20;;
52043;SDS011;38053;53.100;6.078;2023-02-28T16:36:57;13.63;;;5.68;;
52043;SDS011;38053;53.100;6.078;2023-02-28T16:39:24;11.07;;;5.35;;
52043;SDS011;38053;53.100;6.078;2023-02-28T16:41:51;11.18;;;5.72;;
52043;SDS011;38053;53.100;6.078;2023-02-28T16:44:26;11.23;;;5.72;;
52043;SDS011;38053;53.100;6.078;2023-02-28T16:47:02;18.05;;;6.47;;
52043;SDS011;38053;53.100;6.078;2023-02-28T16:49:29;13.75;;;6.47;;
52043;SDS011;38053;53.100;6.078;2023-02-28T16:51:55;10.27;;;5.35;;
52043;SDS011;38053;53.100;6.078;2023-02-28T16:54:20;9.90;;;6.05;;
52043;SDS011;38053;53.100;6.078;2023-02-28T16:56:47;13.27;;;6.32;;
52043;SDS011;38053;53.100;6.078;2023-02-28T16:59:15;8.68;;;5.25;;
52043;SDS011;38053;53.100;6.078;2023-02-28T17:01:51;9.50;;;6.15;;
52043;SDS011;38053;53.100;6.078;2023-02-28T17:04:20;25.27;;;6.07;;
52043;SDS011;38053;53.100;6.078;2023-02-28T17:06:45;14.77;;;7.35;;
52043;SDS011;38053;53.100;6.078;2023-02-28T17:09:18;11.07;;;6.43;;
52043;SDS011;38053;53.100;6.078;2023-02-28T17:11:45;13.05;;;6.75;;
52043;SDS011;38053;53.100;6.078;2023-02-28T17:14:12;11.20;;;7.15;;
52043;SDS011;38053;53.100;6.078;2023-02-28T17:16:43;11.52;;;7.88;;
52043;SDS011;38053;53.100;6.078;2023-02-28T17:19:11;12.68;;;7.10;;
52043;SDS011;38053;53.100;6.078;2023-02-28T17:21:38;12.18;;;6.95;;
52043;SDS011;38053;53.100;6.078;2023-02-28T17:24:07;12.13;;;7.35;;
52043;SDS011;38053;53.100;6.078;2023-02-28T17:26:33;14.48;;;8.05;;